createdAt,value
2023-09-28T00:00:22.844Z,18.97
2023-09-28T00:02:53.832Z,18.94
2023-09-28T00:05:24.084Z,18.88
2023-09-28T00:07:52.980Z,18.85
2023-09-28T00:10:22.104Z,18.80
2023-09-28T00:12:54.973Z,18.77
2023-09-28T00:15:28.718Z,18.73
2023-09-28T00:17:57.591Z,18.69
2023-09-28T00:20:26.729Z,18.63
2023-09-28T00:22:56.798Z,18.61
2023-09-28T00:25:26.634Z,18.58
2023-09-28T00:27:59.911Z,18.55
2023-09-28T00:30:33.561Z,18.51
2023-09-28T00:33:03.705Z,18.47
2023-09-28T00:35:33.046Z,18.43
2023-09-28T00:38:03.555Z,18.40
2023-09-28T00:40:35.535Z,18.35
2023-09-28T00:43:07.228Z,18.32
2023-09-28T00:45:38.148Z,18.28
2023-09-28T00:48:12.286Z,18.26
2023-09-28T00:50:45.530Z,18.20
2023-09-28T00:53:15.095Z,18.19
2023-09-28T00:55:46.848Z,18.17
2023-09-28T00:58:25.225Z,18.12
2023-09-28T01:00:54.560Z,18.09
2023-09-28T01:03:24.194Z,18.03
2023-09-28T01:05:54.109Z,18.00
2023-09-28T01:08:24.425Z,17.96
2023-09-28T01:10:53.053Z,17.92
2023-09-28T01:13:25.996Z,17.88
2023-09-28T01:15:58.824Z,17.86
2023-09-28T01:18:28.050Z,17.81
2023-09-28T01:20:59.775Z,17.78
2023-09-28T01:23:29.626Z,17.75
2023-09-28T01:25:59.577Z,17.74
2023-09-28T01:28:33.620Z,17.72
2023-09-28T01:31:03.263Z,17.68
2023-09-28T01:33:32.990Z,17.65
2023-09-28T01:36:02.664Z,17.61
2023-09-28T01:38:42.473Z,17.59
2023-09-28T01:41:13.705Z,17.55
2023-09-28T01:43:44.085Z,17.52
2023-09-28T01:46:17.175Z,17.50
2023-09-28T01:48:47.134Z,17.50
2023-09-28T01:51:16.036Z,17.47
2023-09-28T01:53:48.158Z,17.43
2023-09-28T01:56:20.483Z,17.39
2023-09-28T01:58:49.354Z,17.34
2023-09-28T02:01:30.994Z,17.32
2023-09-28T02:04:01.875Z,17.29
2023-09-28T02:06:31.318Z,17.27
2023-09-28T02:09:00.686Z,17.23
2023-09-28T02:11:29.898Z,17.20
2023-09-28T02:14:01.024Z,17.17
2023-09-28T02:16:31.503Z,17.13
2023-09-28T02:19:01.085Z,17.11
2023-09-28T02:37:13.366Z,16.92
2023-09-28T02:39:43.110Z,16.83
2023-09-28T02:42:50.823Z,16.81
2023-09-28T02:45:29.003Z,16.77
2023-09-28T02:47:57.830Z,16.73
2023-09-28T02:50:27.241Z,16.69
2023-09-28T02:52:57.809Z,16.68
2023-09-28T02:55:26.512Z,16.65
2023-09-28T02:57:55.180Z,16.64
2023-09-28T03:00:27.999Z,16.62
2023-09-28T03:02:58.900Z,16.60
2023-09-28T03:05:30.646Z,16.61
2023-09-28T03:08:06.606Z,16.62
2023-09-28T03:10:35.958Z,16.60
2023-09-28T03:13:13.921Z,16.60
2023-09-28T03:15:46.264Z,16.58
2023-09-28T03:18:15.876Z,16.56
2023-09-28T03:20:46.938Z,16.55
2023-09-28T03:23:17.039Z,16.50
2023-09-28T03:25:48.114Z,16.46
2023-09-28T03:28:17.789Z,16.45
2023-09-28T03:30:46.643Z,16.43
2023-09-28T03:33:20.228Z,16.42
2023-09-28T03:35:49.058Z,16.41
2023-09-28T03:38:17.943Z,16.40
2023-09-28T03:40:49.268Z,16.39
2023-09-28T03:43:18.306Z,16.36
2023-09-28T03:45:48.103Z,16.33
2023-09-28T03:48:19.515Z,16.30
2023-09-28T03:50:48.052Z,16.25
2023-09-28T03:53:17.249Z,16.23
2023-09-28T03:55:50.963Z,16.21
2023-09-28T03:58:20.258Z,16.18
2023-09-28T04:00:52.000Z,16.14
2023-09-28T04:03:20.601Z,16.08
2023-09-28T04:05:49.725Z,16.09
2023-09-28T04:08:19.464Z,16.06
2023-09-28T04:10:50.141Z,16.04
2023-09-28T04:13:19.131Z,16.01
2023-09-28T04:15:50.072Z,15.99
2023-09-28T04:18:20.417Z,15.96
2023-09-28T04:20:50.380Z,15.93
2023-09-28T04:23:19.139Z,15.91
2023-09-28T04:25:48.684Z,15.89
2023-09-28T04:28:17.531Z,15.87
2023-09-28T04:30:46.353Z,15.84
2023-09-28T04:33:20.511Z,15.82
2023-09-28T04:35:51.236Z,15.80
2023-09-28T04:38:20.468Z,15.78
2023-09-28T04:40:49.708Z,15.75
2023-09-28T04:43:19.050Z,15.72
2023-09-28T04:45:48.972Z,15.70
2023-09-28T04:48:19.446Z,15.70
2023-09-28T04:50:48.555Z,15.69
2023-09-28T04:53:18.168Z,15.68
2023-09-28T04:55:46.488Z,15.67
2023-09-28T04:58:14.910Z,15.66
2023-09-28T05:00:44.164Z,15.62
2023-09-28T05:03:14.137Z,15.60
2023-09-28T05:05:43.889Z,15.59
2023-09-28T05:08:15.450Z,15.58
2023-09-28T05:10:44.646Z,15.56
2023-09-28T05:13:15.097Z,15.55
2023-09-28T05:15:44.163Z,15.53
2023-09-28T05:18:14.058Z,15.51
2023-09-28T05:20:44.077Z,15.48
2023-09-28T05:23:13.182Z,15.47
2023-09-28T05:25:43.078Z,15.44
2023-09-28T05:28:13.236Z,15.42
2023-09-28T05:30:44.088Z,15.39
2023-09-28T05:33:14.077Z,15.36
2023-09-28T05:35:48.029Z,15.32
2023-09-28T05:38:16.492Z,15.27
2023-09-28T05:40:48.405Z,15.26
2023-09-28T05:43:17.673Z,15.23
2023-09-28T05:45:46.820Z,15.21
2023-09-28T05:48:19.872Z,15.20
2023-09-28T05:50:48.783Z,15.15
2023-09-28T05:53:17.447Z,15.12
2023-09-28T05:55:45.990Z,15.09
2023-09-28T05:58:15.313Z,15.06
2023-09-28T06:00:44.208Z,15.02
2023-09-28T06:03:14.923Z,14.98
2023-09-28T06:05:44.061Z,14.94
2023-09-28T06:08:14.059Z,14.91
2023-09-28T06:10:59.023Z,14.87
2023-09-28T06:13:35.990Z,14.85
2023-09-28T06:16:14.604Z,14.83
2023-09-28T06:18:45.134Z,14.81
2023-09-28T06:21:17.067Z,14.78
2023-09-28T06:23:53.125Z,14.76
2023-09-28T06:26:39.071Z,14.73
2023-09-28T06:29:11.605Z,14.71
2023-09-28T06:31:42.528Z,14.69
2023-09-28T06:34:12.842Z,14.69
2023-09-28T06:36:42.785Z,14.69
2023-09-28T06:39:14.560Z,14.67
2023-09-28T06:41:44.260Z,14.65
2023-09-28T06:44:24.413Z,14.66
2023-09-28T06:46:54.552Z,14.65
2023-09-28T06:49:23.922Z,14.63
2023-09-28T06:51:53.020Z,14.61
2023-09-28T06:54:22.443Z,14.59
2023-09-28T06:56:51.930Z,14.55
2023-09-28T06:59:21.619Z,14.53
2023-09-28T07:01:51.619Z,14.54
2023-09-28T07:04:20.417Z,14.53
2023-09-28T07:06:50.607Z,14.51
2023-09-28T07:09:19.299Z,14.47
2023-09-28T07:11:48.089Z,14.45
2023-09-28T07:14:16.824Z,14.43
2023-09-28T07:16:45.507Z,14.42
2023-09-28T07:19:15.491Z,14.39
2023-09-28T07:21:46.475Z,14.37
2023-09-28T07:24:19.478Z,14.34
2023-09-28T07:26:54.646Z,14.29
2023-09-28T07:29:27.029Z,14.27
2023-09-28T07:31:56.159Z,14.27
2023-09-28T07:34:25.281Z,14.25
2023-09-28T07:36:54.741Z,14.23
2023-09-28T07:39:23.862Z,14.22
2023-09-28T07:41:59.462Z,14.22
2023-09-28T07:44:32.017Z,14.16
2023-09-28T07:47:01.009Z,14.13
2023-09-28T07:49:30.210Z,14.08
2023-09-28T07:51:58.872Z,14.07
2023-09-28T07:54:27.881Z,14.05
2023-09-28T07:57:01.201Z,14.04
2023-09-28T07:59:31.578Z,14.03
2023-09-28T08:02:00.913Z,14.03
2023-09-28T08:04:30.090Z,14.03
2023-09-28T08:07:02.746Z,14.02
2023-09-28T08:09:31.856Z,14.02
2023-09-28T08:12:02.604Z,14.02
2023-09-28T08:14:32.669Z,14.01
2023-09-28T08:17:05.392Z,13.99
2023-09-28T08:19:34.192Z,13.97
2023-09-28T08:22:05.531Z,13.96
2023-09-28T08:24:34.116Z,13.92
2023-09-28T08:27:11.269Z,13.91
2023-09-28T08:29:41.009Z,13.88
2023-09-28T08:32:11.943Z,13.87
2023-09-28T08:34:42.279Z,13.85
2023-09-28T08:37:16.136Z,13.83
2023-09-28T08:39:45.591Z,13.83
2023-09-28T08:42:16.365Z,13.81
2023-09-28T08:44:47.327Z,13.80
2023-09-28T08:47:21.033Z,13.78
2023-09-28T08:49:54.522Z,13.76
2023-09-28T08:52:24.688Z,13.75
2023-09-28T08:54:54.116Z,13.71
2023-09-28T08:57:23.010Z,13.69
2023-09-28T08:59:54.279Z,13.68
2023-09-28T09:02:23.976Z,13.64
2023-09-28T09:04:55.903Z,13.61
2023-09-28T09:07:26.510Z,13.59
2023-09-28T09:09:59.426Z,13.59
2023-09-28T09:12:33.921Z,13.58
2023-09-28T09:15:09.240Z,13.56
2023-09-28T09:17:40.382Z,13.56
2023-09-28T09:20:11.606Z,13.54
2023-09-28T09:22:57.875Z,13.52
2023-09-28T09:25:49.168Z,13.51
2023-09-28T09:28:35.313Z,13.50
2023-09-28T09:31:05.188Z,13.46
2023-09-28T09:33:36.421Z,13.47
2023-09-28T09:36:04.989Z,13.47
2023-09-28T09:38:34.135Z,13.48
2023-09-28T09:41:04.007Z,13.50
2023-09-28T09:43:37.868Z,13.52
2023-09-28T09:46:11.358Z,13.53
2023-09-28T09:48:42.929Z,13.56
2023-09-28T09:51:19.653Z,13.57
2023-09-28T09:53:49.645Z,13.56
2023-09-28T09:56:20.995Z,13.59
2023-09-28T09:58:56.022Z,13.61
2023-09-28T10:01:25.826Z,13.63
2023-09-28T10:03:58.104Z,13.64
2023-09-28T10:06:33.579Z,13.68
2023-09-28T10:09:02.687Z,13.71
2023-09-28T10:11:33.030Z,13.75
2023-09-28T10:14:01.882Z,13.79
2023-09-28T10:16:32.265Z,13.80
2023-09-28T10:19:07.006Z,13.84
2023-09-28T10:21:40.794Z,13.86
2023-09-28T10:24:26.877Z,13.90
2023-09-28T10:27:12.559Z,13.90
2023-09-28T10:29:43.119Z,13.91
2023-09-28T10:32:31.450Z,13.97
2023-09-28T10:35:21.943Z,14.01
2023-09-28T10:38:20.123Z,14.05
2023-09-28T10:41:04.381Z,14.09
2023-09-28T10:43:47.388Z,14.20
2023-09-28T10:46:19.989Z,14.14
2023-09-28T10:48:49.182Z,14.14
2023-09-28T10:51:19.602Z,14.16
2023-09-28T10:53:52.280Z,14.19
2023-09-28T10:56:21.235Z,14.21
2023-09-28T10:58:51.592Z,14.25
2023-09-28T11:01:22.780Z,14.28
2023-09-28T11:03:52.446Z,14.31
2023-09-28T11:06:22.509Z,14.34
2023-09-28T11:08:51.900Z,14.37
2023-09-28T11:11:23.649Z,14.39
2023-09-28T11:13:53.349Z,14.42
2023-09-28T11:16:22.897Z,14.44
2023-09-28T11:18:52.000Z,14.46
2023-09-28T11:21:20.707Z,14.47
2023-09-28T11:23:51.400Z,14.51
2023-09-28T11:26:21.693Z,14.54
2023-09-28T11:28:52.956Z,14.55
2023-09-28T11:31:22.914Z,14.56
2023-09-28T11:33:52.428Z,14.59
2023-09-28T11:36:23.462Z,14.60
2023-09-28T11:38:55.041Z,14.63
2023-09-28T11:41:28.567Z,14.66
2023-09-28T11:43:59.177Z,14.67
2023-09-28T11:46:31.125Z,14.70
2023-09-28T11:49:12.970Z,14.76
2023-09-28T11:51:47.658Z,14.77
2023-09-28T11:54:18.788Z,14.80
2023-09-28T11:56:49.792Z,14.82
2023-09-28T11:59:19.953Z,14.86
2023-09-28T12:01:53.949Z,14.90
2023-09-28T12:04:22.961Z,14.94
2023-09-28T12:06:53.059Z,14.97
2023-09-28T12:09:22.032Z,15.03
2023-09-28T12:11:51.500Z,15.10
2023-09-28T12:14:21.033Z,15.15
2023-09-28T12:16:57.643Z,15.19
2023-09-28T12:19:29.848Z,15.22
2023-09-28T12:22:00.399Z,15.24
2023-09-28T12:24:29.794Z,15.26
2023-09-28T12:27:02.792Z,15.29
2023-09-28T12:29:32.254Z,15.32
2023-09-28T12:32:01.529Z,15.36
2023-09-28T12:34:31.948Z,15.43
2023-09-28T12:37:01.580Z,15.50
2023-09-28T12:39:36.151Z,15.57
2023-09-28T12:42:05.650Z,15.66
2023-09-28T12:44:36.378Z,15.76
2023-09-28T12:47:06.769Z,15.89
2023-09-28T12:49:36.184Z,15.98
2023-09-28T12:52:06.261Z,16.07
2023-09-28T12:54:38.312Z,16.16
2023-09-28T12:57:09.380Z,16.21
2023-09-28T12:59:43.205Z,16.24
2023-09-28T13:02:14.086Z,16.25
2023-09-28T13:04:46.856Z,16.25
2023-09-28T13:07:24.269Z,16.30
2023-09-28T13:09:53.860Z,16.31
2023-09-28T13:12:23.050Z,16.33
2023-09-28T13:14:52.335Z,16.34
2023-09-28T13:17:25.943Z,16.38
2023-09-28T13:19:55.049Z,16.38
2023-09-28T13:22:25.898Z,16.40
2023-09-28T13:24:55.398Z,16.43
2023-09-28T13:27:24.549Z,16.46
2023-09-28T13:29:53.497Z,16.47
2023-09-28T13:32:25.328Z,16.49
2023-09-28T13:34:55.005Z,16.55
2023-09-28T13:37:24.120Z,16.56
2023-09-28T13:39:53.082Z,16.61
2023-09-28T13:42:21.858Z,16.66
2023-09-28T13:44:51.966Z,16.73
2023-09-28T13:47:22.186Z,16.80
2023-09-28T13:49:54.413Z,16.85
2023-09-28T13:52:22.750Z,16.87
2023-09-28T13:54:52.447Z,16.92
2023-09-28T13:57:22.002Z,16.97
2023-09-28T13:59:56.906Z,17.01
2023-09-28T14:02:30.273Z,17.04
2023-09-28T14:05:02.533Z,17.09
2023-09-28T14:07:31.655Z,17.12
2023-09-28T14:10:01.105Z,17.17
2023-09-28T14:12:30.623Z,17.22
2023-09-28T14:15:00.721Z,17.24
2023-09-28T14:17:38.191Z,17.28
2023-09-28T14:20:12.538Z,17.34
2023-09-28T14:22:46.216Z,17.37
2023-09-28T14:25:17.339Z,17.40
2023-09-28T14:27:50.571Z,17.46
2023-09-28T14:30:20.156Z,17.49
2023-09-28T14:32:49.766Z,17.52
2023-09-28T14:35:19.234Z,17.58
2023-09-28T14:37:48.671Z,17.60
2023-09-28T14:40:19.198Z,17.64
2023-09-28T14:42:50.298Z,17.66
2023-09-28T14:45:20.170Z,17.68
2023-09-28T14:47:49.373Z,17.71
2023-09-28T14:50:18.695Z,17.78
2023-09-28T14:52:49.149Z,17.81
2023-09-28T14:55:20.383Z,17.87
2023-09-28T14:57:49.446Z,17.91
2023-09-28T15:00:18.165Z,17.95
2023-09-28T15:02:48.739Z,17.97
2023-09-28T15:05:17.764Z,18.00
2023-09-28T15:07:46.862Z,18.04
2023-09-28T15:10:16.407Z,18.10
2023-09-28T15:12:45.273Z,18.14
2023-09-28T15:15:14.224Z,18.18
2023-09-28T15:17:43.080Z,18.21
2023-09-28T15:20:13.780Z,18.25
2023-09-28T15:22:43.625Z,18.27
2023-09-28T15:25:16.464Z,18.27
2023-09-28T15:27:46.228Z,18.31
2023-09-28T15:30:17.180Z,18.35
2023-09-28T15:32:47.696Z,18.40
2023-09-28T15:35:18.155Z,18.46
2023-09-28T15:37:47.428Z,18.48
2023-09-28T15:40:16.740Z,18.53
2023-09-28T15:42:45.444Z,18.60
2023-09-28T15:45:16.718Z,18.64
2023-09-28T15:47:45.952Z,18.69
2023-09-28T15:50:16.008Z,18.74
2023-09-28T15:52:45.896Z,18.80
2023-09-28T15:55:14.899Z,18.82
2023-09-28T15:57:44.243Z,18.85
2023-09-28T16:00:34.807Z,18.91
2023-09-28T16:03:06.101Z,18.98
2023-09-28T16:05:35.762Z,19.01
2023-09-28T16:08:06.406Z,19.05
2023-09-28T16:10:35.570Z,19.07
2023-09-28T16:13:04.783Z,19.10
2023-09-28T16:15:33.622Z,19.13
2023-09-28T16:18:10.151Z,19.17
2023-09-28T16:20:39.778Z,19.18
2023-09-28T16:23:09.147Z,19.20
2023-09-28T16:25:38.844Z,19.22
2023-09-28T16:28:08.949Z,19.25
2023-09-28T16:30:39.060Z,19.29
2023-09-28T16:33:12.806Z,19.31
2023-09-28T16:35:43.215Z,19.36
2023-09-28T16:38:13.308Z,19.40
2023-09-28T16:40:42.894Z,19.42
2023-09-28T16:43:13.171Z,19.45
2023-09-28T16:45:42.771Z,19.46
2023-09-28T16:48:13.179Z,19.46
2023-09-28T16:50:43.380Z,19.48
2023-09-28T16:53:13.101Z,19.47
2023-09-28T16:55:42.613Z,19.47
2023-09-28T16:58:19.946Z,19.51
2023-09-28T17:00:51.348Z,19.53
2023-09-28T17:03:20.151Z,19.54
2023-09-28T17:05:49.427Z,19.55
2023-09-28T17:08:18.826Z,19.59
2023-09-28T17:10:49.430Z,19.62
2023-09-28T17:13:19.351Z,19.65
2023-09-28T17:15:50.726Z,19.70
2023-09-28T17:18:22.054Z,19.73
2023-09-28T17:20:51.310Z,19.76
2023-09-28T17:23:20.002Z,19.79
2023-09-28T17:25:49.885Z,19.80
2023-09-28T17:28:19.137Z,19.82
2023-09-28T17:30:51.773Z,19.81
2023-09-28T17:33:21.056Z,19.79
2023-09-28T17:35:51.279Z,19.82
2023-09-28T17:38:23.552Z,19.84
2023-09-28T17:40:52.147Z,19.87
2023-09-28T17:43:21.137Z,19.92
2023-09-28T17:45:51.196Z,19.97
2023-09-28T17:48:20.343Z,20.01
2023-09-28T17:50:49.655Z,20.03
2023-09-28T17:53:23.778Z,20.07
2023-09-28T17:55:52.737Z,20.08
2023-09-28T17:58:27.695Z,20.13
2023-09-28T18:00:59.726Z,20.15
2023-09-28T18:03:29.844Z,20.17
2023-09-28T18:05:58.853Z,20.20
2023-09-28T18:08:29.385Z,20.24
2023-09-28T18:10:58.296Z,20.28
2023-09-28T18:13:34.036Z,20.32
2023-09-28T18:16:03.106Z,20.34
2023-09-28T18:18:32.659Z,20.36
2023-09-28T18:21:02.420Z,20.39
2023-09-28T18:23:31.046Z,20.42
2023-09-28T18:25:59.784Z,20.44
2023-09-28T18:28:31.680Z,20.51
2023-09-28T18:31:00.148Z,20.55
2023-09-28T18:33:29.841Z,20.58
2023-09-28T18:35:59.512Z,20.62
2023-09-28T18:38:28.484Z,20.64
2023-09-28T18:40:57.023Z,20.67
2023-09-28T18:43:26.007Z,20.69
2023-09-28T18:45:58.013Z,20.72
2023-09-28T18:48:27.432Z,20.74
2023-09-28T18:50:57.734Z,20.77
2023-09-28T18:53:27.266Z,20.79
2023-09-28T18:55:55.892Z,20.83
2023-09-28T18:58:24.789Z,20.86
2023-09-28T19:00:54.572Z,20.89
2023-09-28T19:03:26.509Z,20.92
2023-09-28T19:05:55.554Z,20.94
2023-09-28T19:08:25.290Z,20.95
2023-09-28T19:11:01.516Z,20.98
2023-09-28T19:13:32.163Z,21.00
2023-09-28T19:16:09.344Z,21.05
2023-09-28T19:18:39.383Z,21.06
2023-09-28T19:21:10.434Z,21.08
2023-09-28T19:23:39.750Z,21.08
2023-09-28T19:26:10.795Z,21.11
2023-09-28T19:28:42.108Z,21.12
2023-09-28T19:31:15.156Z,21.15
2023-09-28T19:33:44.924Z,21.19
2023-09-28T19:36:13.839Z,21.19
2023-09-28T19:38:42.772Z,21.21
2023-09-28T19:41:14.912Z,21.24
2023-09-28T19:43:43.674Z,21.26
2023-09-28T19:46:21.214Z,21.28
2023-09-28T19:48:52.841Z,21.29
2023-09-28T19:51:27.566Z,21.31
2023-09-28T19:53:58.904Z,21.31
2023-09-28T19:56:29.592Z,21.29
2023-09-28T19:58:59.369Z,21.33
2023-09-28T20:01:30.832Z,21.35
2023-09-28T20:03:59.914Z,21.35
2023-09-28T20:06:32.732Z,21.37
2023-09-28T20:09:05.325Z,21.38
2023-09-28T20:11:35.900Z,21.36
2023-09-28T20:14:05.580Z,21.37
2023-09-28T20:16:37.851Z,21.36
2023-09-28T20:19:07.591Z,21.37
2023-09-28T20:21:36.785Z,21.39
2023-09-28T20:24:07.402Z,21.38
2023-09-28T20:26:36.276Z,21.37
2023-09-28T20:29:06.863Z,21.37
2023-09-28T20:31:35.592Z,21.39
2023-09-28T20:34:05.097Z,21.37
2023-09-28T20:36:34.079Z,21.37
2023-09-28T20:39:02.380Z,21.36
2023-09-28T20:41:31.812Z,21.36
2023-09-28T20:44:01.526Z,21.35
2023-09-28T20:46:30.860Z,21.35
2023-09-28T20:49:01.755Z,21.35
2023-09-28T20:51:31.403Z,21.34
2023-09-28T20:54:01.070Z,21.35
2023-09-28T20:56:29.980Z,21.33
2023-09-28T20:59:01.090Z,21.34
2023-09-28T21:01:36.502Z,21.33
2023-09-28T21:04:06.062Z,21.32
2023-09-28T21:06:37.202Z,21.32
2023-09-28T21:09:06.925Z,21.32
2023-09-28T21:11:35.774Z,21.34
2023-09-28T21:14:04.695Z,21.33
2023-09-28T21:16:36.820Z,21.34
2023-09-28T21:19:06.006Z,21.35
2023-09-28T21:21:35.466Z,21.35
2023-09-28T21:24:06.448Z,21.36
2023-09-28T21:26:36.379Z,21.37
2023-09-28T21:29:05.117Z,21.38
2023-09-28T21:31:34.673Z,21.37
2023-09-28T21:34:04.455Z,21.36
2023-09-28T21:36:33.016Z,21.35
2023-09-28T21:39:02.419Z,21.35
2023-09-28T21:41:31.277Z,21.32
2023-09-28T21:44:00.143Z,21.31
2023-09-28T21:46:29.165Z,21.30
2023-09-28T21:48:58.029Z,21.30
2023-09-28T21:51:27.677Z,21.27
2023-09-28T21:53:59.639Z,21.26
2023-09-28T21:56:29.238Z,21.24
2023-09-28T21:59:04.366Z,21.24
2023-09-28T22:01:40.618Z,21.24
2023-09-28T22:04:09.386Z,21.26
2023-09-28T22:06:39.462Z,21.23
2023-09-28T22:09:09.877Z,21.23
2023-09-28T22:11:39.517Z,21.22
2023-09-28T22:14:11.560Z,21.20
2023-09-28T22:16:40.959Z,21.21
2023-09-28T22:19:13.192Z,21.20
2023-09-28T22:21:43.621Z,21.20
2023-09-28T22:24:16.305Z,21.19
2023-09-28T22:26:45.444Z,21.19
2023-09-28T22:29:14.173Z,21.18
2023-09-28T22:31:45.787Z,21.16
2023-09-28T22:34:14.930Z,21.13
2023-09-28T22:36:43.498Z,21.12
2023-09-28T22:39:15.300Z,21.11
2023-09-28T22:41:44.186Z,21.10
2023-09-28T22:44:17.759Z,21.10
2023-09-28T22:46:50.658Z,21.09
2023-09-28T22:49:19.539Z,21.06
2023-09-28T22:51:49.105Z,21.05
2023-09-28T22:54:18.083Z,21.03
2023-09-28T22:56:47.484Z,21.03
2023-09-28T22:59:19.645Z,21.02
2023-09-28T23:01:48.393Z,21.00
2023-09-28T23:04:18.841Z,20.99
2023-09-28T23:06:47.881Z,20.99
2023-09-28T23:09:16.301Z,20.98
2023-09-28T23:11:47.140Z,20.98
2023-09-28T23:14:15.994Z,20.97
2023-09-28T23:16:45.374Z,20.94
2023-09-28T23:19:15.012Z,20.92
2023-09-28T23:21:43.647Z,20.90
2023-09-28T23:24:15.226Z,20.90
2023-09-28T23:26:44.501Z,20.87
2023-09-28T23:29:16.510Z,20.86
2023-09-28T23:31:47.737Z,20.86
2023-09-28T23:34:18.463Z,20.84
2023-09-28T23:36:49.434Z,20.84
2023-09-28T23:39:18.215Z,20.82
2023-09-28T23:41:54.093Z,20.82
2023-09-28T23:44:22.857Z,20.82
2023-09-28T23:46:53.722Z,20.80
2023-09-28T23:49:23.075Z,20.79
2023-09-28T23:51:52.474Z,20.79
2023-09-28T23:54:24.097Z,20.76
2023-09-28T23:56:53.223Z,20.74
2023-09-28T23:59:23.324Z,20.74
